createdAt,value
2023-04-25T00:00:46.161Z,110.00
2023-04-25T00:03:14.877Z,112.67
2023-04-25T00:05:43.176Z,108.07
2023-04-25T00:08:11.167Z,113.07
2023-04-25T00:10:39.220Z,109.20
2023-04-25T00:13:07.286Z,108.70
2023-04-25T00:15:37.017Z,108.73
2023-04-25T00:18:07.397Z,108.10
2023-04-25T00:20:35.820Z,106.03
2023-04-25T00:23:03.866Z,105.50
2023-04-25T00:25:31.908Z,107.63
2023-04-25T00:28:00.165Z,108.93
2023-04-25T00:30:28.251Z,112.07
2023-04-25T00:32:56.304Z,108.73
2023-04-25T00:35:25.755Z,105.33
2023-04-25T00:37:53.742Z,112.17
2023-04-25T00:40:21.727Z,109.73
2023-04-25T00:42:50.179Z,105.57
2023-04-25T00:45:19.180Z,106.67
2023-04-25T00:47:48.388Z,109.43
2023-04-25T00:50:16.468Z,107.30
2023-04-25T00:52:47.183Z,105.57
2023-04-25T00:55:16.750Z,110.17
2023-04-25T00:57:45.268Z,105.10
2023-04-25T01:00:14.379Z,104.63
2023-04-25T01:02:43.020Z,116.27
2023-04-25T01:05:11.432Z,106.37
2023-04-25T01:07:39.554Z,110.70
2023-04-25T01:10:10.497Z,114.40
2023-04-25T01:12:38.503Z,105.50
2023-04-25T01:15:07.579Z,106.70
2023-04-25T01:17:37.004Z,103.13
2023-04-25T01:20:06.401Z,109.03
2023-04-25T01:22:36.101Z,107.70
2023-04-25T01:25:04.416Z,109.47
2023-04-25T01:27:32.885Z,105.23
2023-04-25T01:30:01.710Z,107.43
2023-04-25T01:32:30.328Z,105.43
2023-04-25T01:34:58.361Z,112.80
2023-04-25T01:37:26.445Z,103.13
2023-04-25T01:39:58.413Z,110.33
2023-04-25T01:42:26.392Z,105.27
2023-04-25T01:44:54.524Z,109.33
2023-04-25T01:47:22.603Z,105.77
2023-04-25T01:49:50.732Z,105.17
2023-04-25T01:52:18.814Z,102.83
2023-04-25T01:54:47.059Z,102.33
2023-04-25T01:57:16.657Z,107.77
2023-04-25T01:59:45.352Z,103.93
2023-04-25T02:02:13.369Z,103.80
2023-04-25T02:04:41.524Z,102.83
2023-04-25T02:07:09.650Z,105.47
2023-04-25T02:09:37.680Z,104.20
2023-04-25T02:12:06.313Z,110.00
2023-04-25T02:14:35.726Z,110.73
2023-04-25T02:17:04.136Z,112.60
2023-04-25T02:19:32.399Z,105.60
2023-04-25T02:22:00.556Z,110.30
2023-04-25T02:24:28.920Z,108.53
2023-04-25T02:26:57.440Z,110.57
2023-04-25T02:29:25.549Z,107.80
2023-04-25T02:31:55.038Z,114.23
2023-04-25T02:34:23.269Z,108.97
2023-04-25T02:36:51.667Z,105.50
2023-04-25T02:39:19.844Z,112.83
2023-04-25T02:41:47.930Z,106.33
2023-04-25T02:44:15.908Z,108.37
2023-04-25T02:46:44.029Z,106.27
2023-04-25T02:49:13.384Z,102.30
2023-04-25T02:51:41.354Z,104.57
2023-04-25T02:54:09.420Z,105.33
2023-04-25T02:56:37.389Z,108.33
2023-04-25T02:59:05.516Z,109.53
2023-04-25T03:01:33.519Z,100.20
2023-04-25T03:04:01.571Z,107.20
2023-04-25T03:06:31.799Z,103.47
2023-04-25T03:08:59.798Z,107.43
2023-04-25T03:11:27.965Z,105.43
2023-04-25T03:13:55.953Z,109.47
2023-04-25T03:16:24.209Z,100.70
2023-04-25T03:18:52.275Z,101.47
2023-04-25T03:21:20.324Z,102.77
2023-04-25T03:23:49.874Z,109.97
2023-04-25T03:26:18.029Z,110.93
2023-04-25T03:28:46.013Z,104.43
2023-04-25T03:31:13.985Z,106.43
2023-04-25T03:33:42.037Z,108.13
2023-04-25T03:36:10.639Z,102.43
2023-04-25T03:38:38.666Z,104.97
2023-04-25T03:41:08.010Z,109.90
2023-04-25T03:43:36.108Z,105.07
2023-04-25T03:46:04.214Z,104.47
2023-04-25T03:48:32.274Z,107.47
2023-04-25T03:51:00.271Z,109.13
2023-04-25T03:53:28.461Z,109.37
2023-04-25T03:55:56.564Z,109.17
2023-04-25T03:58:26.052Z,102.57
2023-04-25T04:00:54.156Z,108.47
2023-04-25T04:03:22.560Z,106.57
2023-04-25T04:05:50.994Z,104.47
2023-04-25T04:08:19.088Z,104.13
2023-04-25T04:10:47.108Z,108.03
2023-04-25T04:13:15.095Z,108.43
2023-04-25T04:15:44.697Z,110.70
2023-04-25T04:18:12.862Z,109.80
2023-04-25T04:20:41.003Z,108.27
2023-04-25T04:23:08.980Z,106.60
2023-04-25T04:25:37.051Z,103.50
2023-04-25T04:28:06.001Z,107.60
2023-04-25T04:30:37.157Z,104.33
2023-04-25T04:33:06.993Z,105.27
2023-04-25T04:35:35.288Z,110.93
2023-04-25T04:38:03.259Z,106.13
2023-04-25T04:40:33.232Z,103.13
2023-04-25T04:43:01.230Z,109.53
2023-04-25T04:45:29.662Z,102.63
2023-04-25T04:47:57.670Z,108.93
2023-04-25T04:50:27.562Z,103.83
2023-04-25T04:52:56.230Z,104.50
2023-04-25T04:55:24.259Z,101.27
2023-04-25T04:57:52.280Z,103.10
2023-04-25T05:00:21.778Z,106.77
2023-04-25T05:02:50.222Z,104.20
2023-04-25T05:05:18.536Z,105.23
2023-04-25T05:07:47.942Z,106.07
2023-04-25T05:10:16.316Z,108.70
2023-04-25T05:12:44.332Z,106.87
2023-04-25T05:15:12.623Z,108.93
2023-04-25T05:17:41.095Z,110.17
2023-04-25T05:20:10.273Z,113.57
2023-04-25T05:22:38.389Z,105.80
2023-04-25T05:25:08.511Z,113.33
2023-04-25T05:27:36.512Z,114.93
2023-04-25T05:30:05.837Z,109.03
2023-04-25T05:32:33.933Z,112.40
2023-04-25T05:35:02.364Z,116.30
2023-04-25T05:37:31.496Z,116.93
2023-04-25T05:39:59.690Z,113.03
2023-04-25T05:42:29.039Z,114.53
2023-04-25T05:44:57.094Z,114.67
2023-04-25T05:47:25.190Z,119.73
2023-04-25T05:49:53.888Z,115.53
2023-04-25T05:52:22.008Z,116.73
2023-04-25T05:54:50.080Z,115.97
2023-04-25T05:57:23.219Z,116.53
2023-04-25T05:59:53.238Z,113.43
2023-04-25T06:02:22.524Z,112.27
2023-04-25T06:04:52.762Z,113.70
2023-04-25T06:07:21.238Z,110.93
2023-04-25T06:09:49.287Z,114.90
2023-04-25T06:12:17.357Z,116.80
2023-04-25T06:14:47.707Z,120.53
2023-04-25T06:17:17.209Z,116.87
2023-04-25T06:19:45.267Z,117.07
2023-04-25T06:22:13.361Z,118.43
2023-04-25T06:24:41.381Z,115.17
2023-04-25T06:27:09.504Z,117.80
2023-04-25T06:29:37.532Z,120.70
2023-04-25T06:32:05.950Z,119.57
2023-04-25T06:34:35.424Z,121.27
2023-04-25T06:37:03.495Z,121.60
2023-04-25T06:39:31.700Z,118.90
2023-04-25T06:41:59.740Z,119.03
2023-04-25T06:44:30.297Z,119.03
2023-04-25T06:46:58.305Z,119.67
2023-04-25T06:49:26.315Z,121.17
2023-04-25T06:51:55.682Z,114.17
2023-04-25T06:54:23.705Z,117.53
2023-04-25T06:56:51.869Z,110.37
2023-04-25T06:59:19.902Z,113.93
2023-04-25T07:01:47.935Z,116.67
2023-04-25T07:04:16.620Z,115.60
2023-04-25T07:06:45.729Z,116.87
2023-04-25T07:09:15.512Z,113.00
2023-04-25T07:11:43.920Z,109.93
2023-04-25T07:14:11.967Z,115.10
2023-04-25T07:16:40.022Z,110.30
2023-04-25T07:19:08.196Z,110.83
2023-04-25T07:21:37.361Z,113.10
2023-04-25T07:24:05.967Z,112.73
2023-04-25T07:26:35.709Z,113.57
2023-04-25T07:29:03.888Z,108.80
2023-04-25T07:31:32.014Z,107.47
2023-04-25T07:34:02.019Z,109.27
2023-04-25T07:36:31.919Z,110.77
2023-04-25T07:39:00.008Z,110.97
2023-04-25T07:41:28.102Z,121.63
2023-04-25T07:43:57.670Z,116.40
2023-04-25T07:46:25.939Z,113.63
2023-04-25T07:48:54.289Z,112.43
2023-04-25T07:51:23.256Z,114.10
2023-04-25T07:53:51.755Z,115.57
2023-04-25T07:56:19.866Z,116.13
2023-04-25T07:58:47.968Z,118.07
2023-04-25T08:01:17.773Z,116.83
2023-04-25T08:03:46.048Z,122.90
2023-04-25T08:06:14.795Z,121.60
2023-04-25T08:08:42.971Z,120.90
2023-04-25T08:11:11.581Z,125.10
2023-04-25T08:13:39.685Z,127.80
2023-04-25T08:16:09.531Z,131.93
2023-04-25T08:18:39.190Z,137.73
2023-04-25T08:21:07.774Z,140.83
2023-04-25T08:23:35.744Z,147.27
2023-04-25T08:26:04.150Z,152.47
2023-04-25T08:28:32.087Z,151.57
2023-04-25T08:31:01.794Z,143.67
2023-04-25T08:33:30.056Z,145.50
2023-04-25T08:36:00.115Z,153.10
2023-04-25T08:38:28.265Z,149.50
2023-04-25T08:40:57.465Z,146.03
2023-04-25T08:43:27.023Z,151.07
2023-04-25T08:45:55.666Z,152.00
2023-04-25T08:48:26.637Z,155.27
2023-04-25T08:50:57.293Z,161.43
2023-04-25T08:53:29.188Z,157.07
2023-04-25T08:55:59.074Z,148.13
2023-04-25T08:58:27.183Z,149.37
2023-04-25T09:00:55.293Z,160.17
2023-04-25T09:03:24.104Z,164.63
2023-04-25T09:05:54.009Z,156.97
2023-04-25T09:08:22.140Z,162.80
2023-04-25T09:10:51.788Z,157.07
2023-04-25T09:13:31.123Z,166.67
2023-04-25T09:16:00.209Z,158.40
2023-04-25T09:18:32.105Z,159.77
2023-04-25T09:21:13.583Z,154.37
2023-04-25T09:23:43.620Z,152.80
2023-04-25T09:26:16.744Z,157.23
2023-04-25T09:28:45.029Z,162.60
2023-04-25T09:31:13.481Z,158.83
2023-04-25T09:33:43.182Z,158.60
2023-04-25T09:36:13.143Z,164.23
2023-04-25T09:38:43.964Z,171.67
2023-04-25T09:41:13.804Z,173.90
2023-04-25T09:43:42.025Z,179.80
2023-04-25T09:46:12.151Z,180.17
2023-04-25T09:48:40.621Z,173.70
2023-04-25T09:51:10.756Z,181.73
2023-04-25T09:53:40.593Z,173.97
2023-04-25T09:56:11.089Z,181.27
2023-04-25T09:58:41.892Z,176.50
2023-04-25T10:01:11.997Z,179.87
2023-04-25T10:03:42.746Z,179.73
2023-04-25T10:06:14.376Z,192.77
2023-04-25T10:08:43.744Z,201.17
2023-04-25T10:11:12.560Z,180.20
2023-04-25T10:13:42.797Z,186.13
2023-04-25T10:16:11.565Z,180.23
2023-04-25T10:18:39.620Z,180.40
2023-04-25T10:21:08.899Z,180.57
2023-04-25T10:23:38.909Z,183.03
2023-04-25T10:26:08.471Z,186.73
2023-04-25T10:28:59.001Z,187.50
2023-04-25T10:31:27.742Z,180.47
2023-04-25T10:33:56.221Z,175.97
2023-04-25T10:36:25.654Z,178.83
2023-04-25T10:38:55.359Z,185.27
2023-04-25T10:41:24.752Z,182.37
2023-04-25T10:44:03.370Z,186.23
2023-04-25T10:46:32.324Z,183.07
2023-04-25T10:49:01.737Z,186.53
2023-04-25T10:51:39.959Z,195.77
2023-04-25T10:54:21.183Z,204.27
2023-04-25T10:56:52.635Z,200.53
2023-04-25T10:59:22.537Z,200.20
2023-04-25T11:01:55.661Z,192.67
2023-04-25T11:04:25.486Z,202.73
2023-04-25T11:07:09.956Z,205.93
2023-04-25T11:09:41.098Z,206.13
2023-04-25T11:12:12.589Z,210.30
2023-04-25T11:14:42.233Z,215.57
2023-04-25T11:17:11.588Z,201.10
2023-04-25T11:19:40.028Z,198.77
2023-04-25T11:22:08.898Z,187.17
2023-04-25T11:24:38.143Z,185.00
2023-04-25T11:27:07.379Z,178.47
2023-04-25T11:29:36.648Z,176.23
2023-04-25T11:32:06.651Z,167.50
2023-04-25T11:34:35.750Z,173.10
2023-04-25T11:37:05.293Z,172.43
2023-04-25T11:39:33.426Z,171.23
2023-04-25T11:42:02.471Z,178.57
2023-04-25T11:44:32.591Z,165.37
2023-04-25T11:47:00.874Z,177.33
2023-04-25T11:49:34.464Z,185.17
2023-04-25T11:52:02.651Z,193.80
2023-04-25T11:54:31.185Z,200.83
2023-04-25T11:56:59.285Z,209.00
2023-04-25T11:59:28.853Z,206.07
2023-04-25T12:01:58.649Z,207.03
2023-04-25T12:04:27.743Z,217.80
2023-04-25T12:06:58.156Z,202.97
2023-04-25T12:09:38.049Z,216.47
2023-04-25T12:12:07.488Z,215.43
2023-04-25T12:14:37.256Z,209.90
2023-04-25T12:17:08.887Z,208.90
2023-04-25T12:19:41.432Z,218.80
2023-04-25T12:22:23.668Z,208.83
2023-04-25T12:24:54.262Z,196.83
2023-04-25T12:27:22.411Z,197.83
2023-04-25T12:29:55.021Z,190.13
2023-04-25T12:32:23.461Z,197.20
2023-04-25T12:34:51.832Z,195.30
2023-04-25T12:37:20.540Z,201.47
2023-04-25T12:39:49.998Z,200.23
2023-04-25T12:42:18.147Z,199.63
2023-04-25T12:44:48.973Z,201.63
2023-04-25T12:47:18.425Z,193.53
2023-04-25T12:49:46.608Z,196.60
2023-04-25T12:52:14.679Z,183.53
2023-04-25T12:54:42.729Z,194.90
2023-04-25T12:57:12.510Z,196.57
2023-04-25T12:59:40.560Z,193.23
2023-04-25T13:02:08.806Z,195.53
2023-04-25T13:04:37.307Z,205.17
2023-04-25T13:07:06.419Z,198.17
2023-04-25T13:09:34.597Z,196.60
2023-04-25T13:12:03.289Z,190.40
2023-04-25T13:14:32.793Z,189.97
2023-04-25T13:17:01.608Z,193.83
2023-04-25T13:19:30.079Z,197.00
2023-04-25T13:21:58.264Z,199.63
2023-04-25T13:24:26.381Z,193.43
2023-04-25T13:26:54.589Z,194.07
2023-04-25T13:29:24.520Z,187.90
2023-04-25T13:31:54.212Z,181.67
2023-04-25T13:34:22.780Z,182.20
2023-04-25T13:36:51.097Z,170.00
2023-04-25T13:39:19.286Z,186.57
2023-04-25T13:41:47.609Z,168.93
2023-04-25T13:44:15.854Z,172.33
2023-04-25T13:46:47.551Z,163.90
2023-04-25T13:49:17.475Z,162.43
2023-04-25T13:51:46.941Z,156.07
2023-04-25T13:54:15.221Z,160.33
2023-04-25T13:56:43.856Z,162.93
2023-04-25T13:59:12.387Z,162.10
2023-04-25T14:01:40.677Z,166.80
2023-04-25T14:04:09.634Z,167.23
2023-04-25T14:06:39.135Z,176.30
2023-04-25T14:09:11.383Z,184.53
2023-04-25T14:11:41.818Z,173.53
2023-04-25T14:14:13.269Z,180.23
2023-04-25T14:16:41.400Z,182.20
2023-04-25T14:19:09.599Z,183.80
2023-04-25T14:21:39.138Z,179.90
2023-04-25T14:24:07.508Z,177.77
2023-04-25T14:26:36.379Z,171.40
2023-04-25T14:29:07.775Z,177.03
2023-04-25T14:31:36.769Z,175.57
2023-04-25T14:34:07.689Z,173.87
2023-04-25T14:36:36.333Z,178.03
2023-04-25T14:39:07.240Z,176.30
2023-04-25T14:41:35.345Z,190.03
2023-04-25T14:44:03.533Z,176.83
2023-04-25T14:46:31.740Z,170.17
2023-04-25T14:48:59.896Z,175.57
2023-04-25T14:51:28.470Z,183.93
2023-04-25T14:53:56.501Z,171.13
2023-04-25T14:56:26.473Z,177.57
2023-04-25T14:58:54.558Z,178.87
2023-04-25T15:01:22.967Z,173.50
2023-04-25T15:03:52.423Z,166.83
2023-04-25T15:06:20.794Z,173.70
2023-04-25T15:08:48.865Z,157.27
2023-04-25T15:11:16.939Z,164.07
2023-04-25T15:13:46.384Z,149.07
2023-04-25T15:16:16.653Z,150.53
2023-04-25T15:18:45.012Z,140.93
2023-04-25T15:21:13.418Z,150.37
2023-04-25T15:23:41.520Z,147.10
2023-04-25T15:26:10.180Z,154.47
2023-04-25T15:28:38.749Z,154.67
2023-04-25T15:31:08.974Z,160.03
2023-04-25T15:33:37.159Z,162.10
2023-04-25T15:36:06.053Z,169.83
2023-04-25T15:38:36.980Z,161.07
2023-04-25T15:41:06.808Z,159.97
2023-04-25T15:43:38.226Z,164.73
2023-04-25T15:46:07.856Z,163.20
2023-04-25T15:48:36.314Z,175.40
2023-04-25T15:51:04.536Z,173.67
2023-04-25T15:53:32.757Z,177.40
2023-04-25T15:56:00.776Z,166.50
2023-04-25T15:58:28.817Z,184.10
2023-04-25T16:00:57.243Z,176.00
2023-04-25T16:03:26.812Z,170.73
2023-04-25T16:05:54.922Z,169.30
2023-04-25T16:08:22.939Z,165.97
2023-04-25T16:10:51.007Z,165.73
2023-04-25T16:13:19.068Z,167.67
2023-04-25T16:15:47.085Z,164.23
2023-04-25T16:18:15.388Z,159.53
2023-04-25T16:20:44.871Z,160.03
2023-04-25T16:23:12.938Z,161.70
2023-04-25T16:25:41.031Z,156.13
2023-04-25T16:28:09.042Z,156.37
2023-04-25T16:30:37.104Z,154.47
2023-04-25T16:33:05.571Z,150.63
2023-04-25T16:35:33.695Z,149.07
2023-04-25T16:38:03.076Z,143.10
2023-04-25T16:40:31.188Z,143.17
2023-04-25T16:42:59.362Z,135.20
2023-04-25T16:45:27.821Z,140.13
2023-04-25T16:47:56.016Z,137.43
2023-04-25T16:50:24.068Z,137.70
2023-04-25T16:52:52.171Z,137.13
2023-04-25T16:55:21.676Z,145.07
2023-04-25T16:57:49.725Z,151.10
2023-04-25T17:00:19.429Z,164.73
2023-04-25T17:02:47.593Z,171.03
2023-04-25T17:05:15.922Z,177.37
2023-04-25T17:07:43.921Z,175.33
2023-04-25T17:10:12.379Z,166.13
2023-04-25T17:12:41.848Z,165.87
2023-04-25T17:15:11.147Z,174.47
2023-04-25T17:17:39.156Z,170.13
2023-04-25T17:20:09.744Z,173.50
2023-04-25T17:22:38.598Z,164.83
2023-04-25T17:25:08.670Z,179.97
2023-04-25T17:27:37.215Z,170.73
2023-04-25T17:30:08.667Z,166.37
2023-04-25T17:32:36.786Z,158.73
2023-04-25T17:35:08.080Z,152.37
2023-04-25T17:37:36.294Z,152.07
2023-04-25T17:40:05.178Z,143.17
2023-04-25T17:42:35.849Z,139.13
2023-04-25T17:45:03.941Z,135.87
2023-04-25T17:47:33.644Z,136.73
2023-04-25T17:50:01.799Z,128.77
2023-04-25T17:52:29.899Z,129.53
2023-04-25T17:54:57.894Z,128.37
2023-04-25T17:57:26.438Z,127.77
2023-04-25T17:59:56.303Z,123.27
2023-04-25T18:02:24.564Z,129.10
2023-04-25T18:04:54.380Z,121.27
2023-04-25T18:07:22.446Z,120.47
2023-04-25T18:09:50.771Z,117.30
2023-04-25T18:12:19.003Z,115.77
2023-04-25T18:14:47.193Z,118.13
2023-04-25T18:17:15.390Z,116.40
2023-04-25T18:19:43.611Z,122.60
2023-04-25T18:22:13.122Z,119.70
2023-04-25T18:24:41.276Z,115.17
2023-04-25T18:27:10.168Z,111.20
2023-04-25T18:29:38.601Z,111.03
2023-04-25T18:32:07.098Z,112.17
2023-04-25T18:34:35.406Z,112.33
2023-04-25T18:37:03.656Z,110.90
2023-04-25T18:39:33.242Z,110.30
2023-04-25T18:42:06.452Z,108.40
2023-04-25T18:44:39.501Z,112.37
2023-04-25T18:47:07.831Z,110.17
2023-04-25T18:49:35.953Z,110.03
2023-04-25T18:52:04.187Z,105.30
2023-04-25T18:54:33.658Z,106.47
2023-04-25T18:57:01.717Z,111.20
2023-04-25T18:59:30.122Z,106.27
2023-04-25T19:01:58.354Z,106.00
2023-04-25T19:04:26.588Z,105.33
2023-04-25T19:06:54.829Z,107.33
2023-04-25T19:09:23.447Z,103.80
2023-04-25T19:11:53.118Z,102.77
2023-04-25T19:14:21.325Z,108.07
2023-04-25T19:16:49.436Z,105.53
2023-04-25T19:19:17.661Z,105.67
2023-04-25T19:21:45.796Z,107.60
2023-04-25T19:24:14.145Z,105.60
2023-04-25T19:26:42.249Z,103.57
2023-04-25T19:29:14.369Z,104.50
2023-04-25T19:31:44.409Z,103.50
2023-04-25T19:34:13.186Z,100.43
2023-04-25T19:36:43.936Z,98.93
2023-04-25T19:39:12.410Z,100.90
2023-04-25T19:41:40.958Z,102.27
2023-04-25T19:44:11.135Z,98.17
2023-04-25T19:46:39.986Z,103.53
2023-04-25T19:49:08.352Z,96.47
2023-04-25T19:51:37.045Z,97.67
2023-04-25T19:54:05.887Z,98.30
2023-04-25T19:56:34.153Z,95.83
2023-04-25T19:59:02.341Z,94.03
2023-04-25T20:01:32.016Z,98.03
2023-04-25T20:04:00.131Z,93.93
2023-04-25T20:06:29.002Z,100.07
2023-04-25T20:08:57.549Z,91.90
2023-04-25T20:11:28.579Z,91.93
2023-04-25T20:13:57.348Z,89.53
2023-04-25T20:16:25.661Z,100.43
2023-04-25T20:18:55.507Z,94.57
2023-04-25T20:21:24.024Z,93.37
2023-04-25T20:23:52.250Z,88.20
2023-04-25T20:26:22.595Z,93.20
2023-04-25T20:28:51.337Z,90.77
2023-04-25T20:31:19.619Z,85.40
2023-04-25T20:33:48.137Z,88.70
2023-04-25T20:36:19.425Z,89.30
2023-04-25T20:38:47.445Z,86.70
2023-04-25T20:41:20.909Z,87.33
2023-04-25T20:43:52.285Z,86.87
2023-04-25T20:46:20.485Z,87.20
2023-04-25T20:48:48.853Z,85.23
2023-04-25T20:51:18.525Z,88.53
2023-04-25T20:53:46.610Z,87.07
2023-04-25T20:56:14.761Z,83.87
2023-04-25T20:58:42.867Z,82.57
2023-04-25T21:01:11.422Z,87.80
2023-04-25T21:03:40.326Z,89.63
2023-04-25T21:06:08.798Z,82.27
2023-04-25T21:08:38.264Z,84.03
2023-04-25T21:11:06.659Z,91.67
2023-04-25T21:13:36.895Z,96.67
2023-04-25T21:16:05.605Z,83.63
2023-04-25T21:18:34.831Z,83.33
2023-04-25T21:21:04.329Z,79.43
2023-04-25T21:23:32.937Z,82.73
2023-04-25T21:26:02.437Z,81.60
2023-04-25T21:28:30.446Z,81.47
2023-04-25T21:30:58.611Z,78.67
2023-04-25T21:33:26.694Z,80.33
2023-04-25T21:35:54.774Z,79.40
2023-04-25T21:38:22.908Z,77.73
2023-04-25T21:40:51.291Z,77.03
2023-04-25T21:43:21.505Z,80.07
2023-04-25T21:46:14.537Z,76.37
2023-04-25T21:48:37.790Z,78.20
2023-04-25T21:51:06.495Z,77.83
2023-04-25T21:53:34.566Z,78.17
2023-04-25T21:56:02.569Z,73.70
2023-04-25T21:58:32.035Z,76.90
2023-04-25T22:01:00.576Z,74.60
2023-04-25T22:03:28.786Z,76.60
2023-04-25T22:05:57.120Z,72.80
2023-04-25T22:08:25.209Z,74.43
2023-04-25T22:10:55.287Z,74.80
2023-04-25T22:13:23.864Z,75.03
2023-04-25T22:15:53.944Z,74.37
2023-04-25T22:18:22.236Z,71.97
2023-04-25T22:20:50.606Z,71.47
2023-04-25T22:23:18.938Z,70.80
2023-04-25T22:25:47.448Z,71.37
2023-04-25T22:28:15.472Z,71.87
2023-04-25T22:30:46.294Z,75.17
2023-04-25T22:33:15.671Z,71.63
2023-04-25T22:35:43.758Z,73.53
2023-04-25T22:38:11.864Z,69.30
2023-04-25T22:40:39.893Z,70.30
2023-04-25T22:43:07.879Z,69.10
2023-04-25T22:45:37.784Z,72.07
2023-04-25T22:48:06.493Z,66.80
2023-04-25T22:50:36.897Z,70.07
2023-04-25T22:53:05.132Z,70.40
2023-04-25T22:55:33.166Z,69.97
2023-04-25T22:58:01.243Z,68.90
2023-04-25T23:00:30.375Z,69.73
2023-04-25T23:02:58.625Z,68.57
2023-04-25T23:05:27.387Z,66.80
2023-04-25T23:07:57.648Z,66.77
2023-04-25T23:10:25.738Z,64.60
2023-04-25T23:12:54.825Z,67.70
2023-04-25T23:15:23.122Z,68.33
2023-04-25T23:17:51.370Z,66.30
2023-04-25T23:20:21.038Z,63.03
2023-04-25T23:22:49.673Z,61.97
2023-04-25T23:25:19.239Z,63.60
2023-04-25T23:27:47.512Z,63.63
2023-04-25T23:30:16.396Z,63.47
2023-04-25T23:32:44.458Z,68.50
2023-04-25T23:35:12.932Z,64.97
2023-04-25T23:37:41.378Z,62.13
2023-04-25T23:40:12.157Z,61.17
2023-04-25T23:42:42.589Z,61.77
2023-04-25T23:45:11.445Z,60.67
2023-04-25T23:47:39.493Z,61.27
2023-04-25T23:50:08.964Z,60.40
2023-04-25T23:52:37.887Z,62.57
2023-04-25T23:55:06.712Z,62.03
2023-04-25T23:57:34.881Z,61.10
